Stations météo

réclame
Mon MeteoGroup
Mt. St.Vincent, France (7382): Température de l'air & dewpoint: 14.11.2017 12:00:00 - 20.11.2017 12:00:00 (CET)Mt. St.Vincent, France (7382): Vitesse du vent & gusts: 14.11.2017 12:00:00 - 20.11.2017 12:00:00 (CET)Mt. St.Vincent, France (7382): Direction du vent: 14.11.2017 12:00:00 - 20.11.2017 12:00:00 (CET)Mt. St.Vincent, France (7382): Ensoleillement: 14.11.2017 12:00:00 - 20.11.2017 12:00:00 (CET)Mt. St.Vincent, France (7382): Quantités de précipitations: 14.11.2017 12:00:00 - 20.11.2017 12:00:00 (CET)
Date & Time tt [°C] td [°C] ff [km/h] ff [knt] fx [km/h] fx [knt] dd sd [min] rr [mm]
20.11.2017 12:00:00 1,6 1,6 13 7 18 10 W 6 0,0
20.11.2017 11:00:00 1,2 1,2 11 6 16 9 W 42 0,0
20.11.2017 10:00:00 0,5 0,5 13 7 18 10 WSW 12 0,0
20.11.2017 09:00:00 0,0 0,0 11 6 15 8 WSW 42 0,0
20.11.2017 08:00:00 -0,3 -0,3 11 6 15 8 W 0 0,0
20.11.2017 07:00:00 -0,4 -0,4 9 5 16 9 WSW 0 -
20.11.2017 06:00:00 -1,1 -1,2 8 4 9 5 SW 0 0,0
20.11.2017 05:00:00 -0,6 -0,6 4 2 9 5 SSW 0 0,0
20.11.2017 04:00:00 1,2 1,2 4 2 9 5 E 0 0,0
20.11.2017 03:00:00 1,4 1,3 8 4 15 8 NNE 0 0,0
20.11.2017 02:00:00 1,5 1,5 9 5 15 8 N 0 0,0
20.11.2017 01:00:00 1,5 1,4 8 4 15 8 NNW 0 -
20.11.2017 00:00:00 1,8 1,8 9 5 21 11 NNW 0 0,0
19.11.2017 23:00:00 1,7 1,7 5 3 13 7 NW 0 0,0
19.11.2017 22:00:00 2,1 2,1 8 4 16 9 W 0 0,0
19.11.2017 21:00:00 2,6 2,5 8 4 11 6 W 0 0,0
19.11.2017 20:00:00 3,2 3,2 5 3 9 5 W 0 0,0
19.11.2017 19:00:00 3,5 3,5 2 1 9 5 NW 0 -
19.11.2017 18:00:00 3,6 3,6 5 3 11 6 W 0 0,0
19.11.2017 17:00:00 3,5 3,5 9 5 15 8 W 0 0,0
19.11.2017 16:00:00 3,5 3,5 11 6 18 10 W 0 0,0
19.11.2017 15:00:00 3,5 3,4 13 7 24 13 W 0 0,0
19.11.2017 14:00:00 3,3 3,3 18 10 26 14 W 0 0,0
19.11.2017 13:00:00 3,1 3,0 21 11 29 16 W 0 -
19.11.2017 12:00:00 2,4 2,4 21 11 34 18 W 0 0,0
19.11.2017 11:00:00 1,8 1,8 24 13 37 20 W 0 0,0
19.11.2017 10:00:00 1,3 1,2 29 16 42 23 W 0 0,6
19.11.2017 09:00:00 1,4 1,1 34 18 50 27 W 0 0,0
19.11.2017 08:00:00 1,7 0,8 41 22 54 29 W 0 0,0
19.11.2017 07:00:00 1,2 0,9 39 21 54 29 W 0 -
19.11.2017 06:00:00 1,7 1,3 35 19 48 26 W 0 0,0
19.11.2017 05:00:00 1,5 1,2 31 17 48 26 W 0 0,0
19.11.2017 04:00:00 1,6 0,0 28 15 44 24 W 0 0,0
19.11.2017 03:00:00 1,8 -0,3 31 17 44 24 W 0 0,0
19.11.2017 02:00:00 1,5 -0,6 22 12 29 16 W 0 0,0
19.11.2017 01:00:00 1,3 -0,6 15 8 21 11 WSW 0 -
19.11.2017 00:00:00 1,8 -1,5 8 4 9 5 SW 0 0,0
18.11.2017 23:00:00 2,0 -1,4 4 2 8 4 SW 0 0,0
18.11.2017 22:00:00 1,4 -1,3 8 4 9 5 WNW 0 0,0
18.11.2017 21:00:00 2,3 -0,3 4 2 11 6 NW 0 0,0
18.11.2017 20:00:00 2,4 -0,4 4 2 11 6 N 0 0,0
18.11.2017 19:00:00 2,6 -0,5 4 2 11 6 N 0 -
18.11.2017 18:00:00 2,9 0,8 4 2 22 12 WNW 0 0,0
18.11.2017 17:00:00 2,9 0,6 11 6 21 11 WSW 18 0,0
18.11.2017 16:00:00 3,8 1,0 15 8 22 12 W 6 0,0
18.11.2017 15:00:00 4,0 2,2 13 7 18 10 W 0 0,0
18.11.2017 14:00:00 4,6 1,6 5 3 13 7 W 6 0,0
18.11.2017 13:00:00 3,6 1,8 9 5 15 8 WNW 0 -
18.11.2017 12:00:00 3,1 1,6 8 4 15 8 WNW 0 0,0
18.11.2017 11:00:00 2,4 1,4 4 2 11 6 NW 0 0,0
18.11.2017 10:00:00 2,2 1,6 4 2 8 4 NNW 0 0,0
18.11.2017 09:00:00 2,1 1,8 4 2 13 7 NNE 0 0,0
18.11.2017 08:00:00 2,1 2,1 4 2 16 9 N 0 0,0
18.11.2017 07:00:00 2,3 2,2 9 5 22 12 NE 0 -
18.11.2017 06:00:00 2,4 2,3 15 8 28 15 NNE 0 0,0
18.11.2017 05:00:00 2,6 2,6 13 7 26 14 NNE 0 0,0
18.11.2017 04:00:00 2,7 2,7 9 5 22 12 NNE 0 0,0
18.11.2017 03:00:00 2,9 2,9 11 6 21 11 NNE 0 0,0
18.11.2017 02:00:00 3,2 3,2 15 8 28 15 NE 0 0,0
18.11.2017 01:00:00 3,2 3,2 13 7 28 15 NNE 0 -
18.11.2017 00:00:00 3,3 3,3 9 5 24 13 N 0 0,0
17.11.2017 23:00:00 3,6 3,6 11 6 26 14 N 0 0,0
17.11.2017 22:00:00 3,8 3,8 13 7 26 14 N 0 0,0
17.11.2017 21:00:00 4,0 3,9 11 6 24 13 N 0 0,0
17.11.2017 20:00:00 4,2 4,2 9 5 24 13 N 0 0,0
17.11.2017 19:00:00 3,7 3,4 11 6 21 11 NNW 0 -
17.11.2017 18:00:00 4,6 3,7 11 6 21 11 N 0 0,0
17.11.2017 17:00:00 3,5 2,8 11 6 15 8 NNW 42 0,0
17.11.2017 16:00:00 4,6 2,8 8 4 15 8 NW 60 0,0
17.11.2017 15:00:00 5,6 2,9 5 3 16 9 NNW 60 0,0
17.11.2017 14:00:00 6,3 2,9 8 4 18 10 N 60 0,0
17.11.2017 13:00:00 4,5 1,9 11 6 21 11 N 60 -
17.11.2017 12:00:00 4,2 1,1 8 4 26 14 NNE 60 0,0
17.11.2017 11:00:00 2,1 1,5 9 5 22 12 N 60 0,0
17.11.2017 10:00:00 1,7 0,7 5 3 22 12 N 48 0,0
17.11.2017 09:00:00 1,5 0,6 11 6 22 12 NNE 24 0,0
17.11.2017 08:00:00 0,6 0,3 9 5 22 12 N 0 0,0
17.11.2017 07:00:00 0,5 0,2 11 6 26 14 N 0 -
17.11.2017 06:00:00 0,3 0,3 11 6 24 13 NNE 0 0,0
17.11.2017 05:00:00 -0,3 -0,3 4 2 18 10 N 0 0,0
17.11.2017 04:00:00 -0,2 -0,2 8 4 24 13 N 0 0,0
17.11.2017 03:00:00 -0,4 -0,4 13 7 18 10 NE 0 0,0
17.11.2017 02:00:00 -0,6 -0,6 13 7 21 11 NE 0 0,0
17.11.2017 01:00:00 -0,5 -0,5 13 7 22 12 ENE 0 -
17.11.2017 00:00:00 -0,5 -0,5 16 9 26 14 NE 0 0,0
16.11.2017 23:00:00 -1,1 -1,1 16 9 22 12 NE 0 0,0
16.11.2017 22:00:00 -1,1 -1,1 11 6 18 10 NE 0 0,0
16.11.2017 21:00:00 -1,0 -1,1 9 5 11 6 NE 0 0,0
16.11.2017 20:00:00 -1,2 -1,2 8 4 18 10 NE 0 0,0
16.11.2017 19:00:00 -1,0 -1,0 9 5 11 6 ENE 0 -
16.11.2017 18:00:00 -0,8 -0,8 8 4 15 8 N 0 0,0
16.11.2017 17:00:00 -1,0 -1,0 11 6 15 8 NNE 18 0,0
16.11.2017 16:00:00 -0,3 -0,3 8 4 15 8 NE 12 0,0
16.11.2017 15:00:00 0,5 0,4 4 2 13 7 ENE 48 0,0
16.11.2017 14:00:00 0,2 0,2 5 3 9 5 E 24 0,0
16.11.2017 13:00:00 -1,1 -1,1 4 2 8 4 WNW 0 -
16.11.2017 12:00:00 -0,4 -0,4 4 2 8 4 S 24 0,0
16.11.2017 11:00:00 -1,7 -1,7 8 4 15 8 ENE 12 0,0
16.11.2017 10:00:00 -1,9 -2,0 5 3 11 6 ENE 60 0,0
16.11.2017 09:00:00 -2,6 -2,6 8 4 18 10 NNE 48 0,0
16.11.2017 08:00:00 -2,9 -3,0 4 2 13 7 N 0 0,0
16.11.2017 07:00:00 -2,5 -2,6 5 3 18 10 NE 0 -
16.11.2017 06:00:00 -2,0 -2,0 15 8 21 11 ENE 0 0,0
16.11.2017 05:00:00 -1,6 -1,6 15 8 21 11 NE 0 0,0
16.11.2017 04:00:00 -1,4 -1,8 13 7 24 13 ENE 0 0,0
16.11.2017 03:00:00 -0,8 -1,5 8 4 24 13 NNE 0 0,0
16.11.2017 02:00:00 0,0 -1,4 18 10 31 17 NE 0 0,0
16.11.2017 01:00:00 0,6 -1,5 22 12 34 18 NE 0 -
16.11.2017 00:00:00 1,5 -0,9 22 12 34 18 NNE 0 0,0
15.11.2017 23:00:00 1,5 -0,1 13 7 35 19 N 0 0,0
15.11.2017 22:00:00 2,3 -0,1 15 8 29 16 NNE 0 0,0
15.11.2017 21:00:00 2,7 -0,1 21 11 31 17 NE 0 0,0
15.11.2017 20:00:00 2,8 -0,1 9 5 31 17 N 0 0,0
15.11.2017 19:00:00 3,6 -2,0 18 10 29 16 NNE 0 -
15.11.2017 18:00:00 3,8 -3,9 16 9 29 16 NE 0 0,0
15.11.2017 17:00:00 3,3 -2,7 16 9 24 13 NE 48 0,0
15.11.2017 16:00:00 4,4 -2,7 15 8 24 13 NE 60 0,0
15.11.2017 15:00:00 5,2 -1,9 13 7 22 12 NE 60 0,0
15.11.2017 14:00:00 5,9 -1,7 8 4 26 14 NNE 60 0,0
15.11.2017 13:00:00 5,4 -2,2 16 9 29 16 NE 60 -
15.11.2017 12:00:00 4,1 0,1 9 5 26 14 NNE 60 0,0
15.11.2017 11:00:00 2,7 -1,5 11 6 35 19 NNE 60 0,0
15.11.2017 10:00:00 1,0 -0,9 16 9 29 16 NE 54 0,0
15.11.2017 09:00:00 0,2 -0,9 16 9 37 20 NNE 48 0,0
15.11.2017 08:00:00 -0,3 -0,9 22 12 42 23 NNE 0 0,0
15.11.2017 07:00:00 -0,6 -0,9 22 12 39 21 NNE 0 -
15.11.2017 06:00:00 -0,2 -0,3 18 10 35 19 N 0 0,0
15.11.2017 05:00:00 -0,6 -0,6 16 9 39 21 N 0 0,0
15.11.2017 04:00:00 -0,1 -0,1 22 12 35 19 NNE 0 0,0
15.11.2017 03:00:00 0,0 -0,1 18 10 35 19 NNE 0 0,0
15.11.2017 02:00:00 0,3 0,2 16 9 34 18 NNE 0 0,0
15.11.2017 01:00:00 0,9 0,8 21 11 34 18 NNE 0 -
15.11.2017 00:00:00 0,9 0,9 18 10 37 20 NNE 0 0,0
14.11.2017 23:00:00 1,2 0,9 21 11 39 21 NNE 0 0,0
14.11.2017 22:00:00 1,5 0,8 22 12 41 22 NNE 0 0,0
14.11.2017 21:00:00 1,3 0,7 15 8 29 16 N 0 0,0
14.11.2017 20:00:00 2,0 1,0 11 6 28 15 N 0 0,0
14.11.2017 19:00:00 2,3 1,0 13 7 24 13 NNE 0 -
14.11.2017 18:00:00 2,5 0,6 13 7 26 14 NNE 0 0,0
14.11.2017 17:00:00 3,2 0,3 16 9 26 14 NE 0 0,0
14.11.2017 16:00:00 4,7 0,8 15 8 22 12 NE 24 0,0
14.11.2017 15:00:00 5,1 1,6 11 6 28 15 NNE 24 0,0
14.11.2017 14:00:00 5,2 2,0 13 7 28 15 NNE 42 0,0
14.11.2017 13:00:00 4,7 2,4 13 7 28 15 NNE 24 -
14.11.2017 12:00:00 4,7 2,1 13 7 24 13 NNE 18 0,0

tt = Température de l'air
td = dewpoint
ff = Vitesse du vent
fx = gusts
dd = Direction du vent
sd = Ensoleillement
rr = Quantités de précipitations

stations d'obs. à proximité